Aeroporto :
LOGIN :

Iscrizione | Disclaimer

   EN    FR    IT 

 










Sommario :    VFR   VFR Marginale   IFR   IFR Intensivo   IFR Molto Intensivo
Visibilità : 
Base nubi : 
>= 8 km
>= 3000ft
5 / 8 km
1000 / 3000 ft
1500m / 5 km
500 / 1000 ft
800 / 1500m
200 / 500 ft
< 800m
< 200 ft
Simboli :   Temporali  Nebbia  Neve Forte  Precipitazioni Forti  Vento > 20 kt
SIGMETs :   Varie  Temporali  Ghiacco  Turbolenza  Onda orograficha  Ceneri Vulcaniche






- Altitudine del aeroporto : 341 ft


EPMO - Modlin

ULTIMO METAR :
  • 242330Z 24011KT 7000 SCT009 OVC016 00/M01 Q1017

METARs OBSOLETI :
  • 242300Z 24010KT 7000 OVC012 01/M01 Q1017
  • 242230Z 24009KT 7000 OVC012 01/M01 Q1018
  • 242200Z 25012KT 6000 OVC009 01/M00 Q1018
  • 242130Z 24011KT 6000 BKN008 OVC013 01/00 Q1017
  • 242100Z 26013KT 5000 -DZ BR SCT006 OVC011 01/00 Q1018

TAF TAF EPMO
Valido dal 25 a 00 ore il 26 a 00 ore UTC


242330Z 2500/2524 26010KT 9999 BKN006 OVC012
PROB40 2500/2509 4500 BR BKN004
TEMPO 2509/2524 3500 -RADZ BR BKN004



MetMap, La meteo Aeronautica in un colpo d'occhio ! - Copyright ORBIFLY Dicembre 2007 - Disclaimer

ORBIFLY MET'MAP TEAM :

Programmazione e sviluppo : Alexandra Zaïnal
Concezione : Baudouin d'Aumeries
Aiuto per la programmazione : Marc-Olivier Méhu
Supporto tecnico e logistico : Manuel Goepfert
Aiuto per la traduzione : Arnaldo La Scala

Contatto : metmap@orbifly.com




FONTI E CREDITI :

   NOAA